Time;durP1;ratioP1;P1;durP2;ratioP2;P2;SDS_P1;SDS_P2;PMS_P1;PMS_P2;Temp;Humidity;BMP_temperature;BMP_pressure;BME280_temperature;BME280_humidity;BME280_pressure;Samples;Min_cycle;Max_cycle;Signal;HPM_P1;HPM_P2
2023/10/11 00:00:33;;;;;;;10.48;4.30;;;;;;;18.86;58.29;101241.47;3614925;39;20062;-66
2023/10/11 00:03:05;;;;;;;8.05;4.03;;;;;;;18.83;57.53;101230.88;3614689;39;20057;-66
2023/10/11 00:05:41;;;;;;;7.60;4.10;;;;;;;18.82;57.51;101245.50;3615751;39;20059;-66
2023/10/11 00:08:18;;;;;;;8.40;4.30;;;;;;;18.72;57.70;101212.75;3613660;39;20057;-67
2023/10/11 00:10:53;;;;;;;6.18;3.97;;;;;;;18.78;57.79;101229.44;3616265;39;20054;-67
2023/10/11 00:13:25;;;;;;;10.93;4.40;;;;;;;18.77;57.61;101235.00;3619159;39;20062;-66
2023/10/11 00:15:53;;;;;;;7.20;4.55;;;;;;;18.76;58.06;101238.72;3614078;39;20058;-66
2023/10/11 00:18:30;;;;;;;5.40;3.35;;;;;;;18.73;57.44;101231.69;3614360;39;20134;-66
2023/10/11 00:20:59;;;;;;;6.40;4.30;;;;;;;18.73;57.83;101236.28;3615656;39;20091;-68
2023/10/11 00:23:27;;;;;;;7.55;3.80;;;;;;;18.66;57.99;101230.50;3614566;39;20095;-66
2023/10/11 00:26:01;;;;;;;7.60;3.65;;;;;;;18.70;57.80;101239.25;3615594;39;20057;-67
2023/10/11 00:28:31;;;;;;;8.10;4.00;;;;;;;18.55;58.49;101212.41;3617392;39;20087;-67
2023/10/11 00:31:00;;;;;;;7.13;4.10;;;;;;;18.59;57.92;101228.47;3615351;39;20401;-66
2023/10/11 00:33:29;;;;;;;6.18;4.15;;;;;;;18.51;58.44;101221.81;3613902;39;20086;-67
2023/10/11 00:35:55;;;;;;;7.03;4.13;;;;;;;18.60;58.54;101236.50;3615086;39;20042;-66
2023/10/11 00:38:27;;;;;;;8.15;4.03;;;;;;;18.38;58.58;101199.41;3613923;39;20170;-66
2023/10/11 00:43:39;;;;;;;8.48;4.40;;;;;;;18.53;58.93;101236.16;3613870;39;20057;-66
2023/10/11 00:46:09;;;;;;;6.78;4.30;;;;;;;18.51;59.06;101232.72;3603242;39;20120;-66
2023/10/11 00:48:37;;;;;;;5.13;3.70;;;;;;;18.37;58.51;101207.75;3615726;39;20058;-65
2023/10/11 00:51:07;;;;;;;6.85;4.00;;;;;;;18.47;59.49;101223.09;3614407;39;20053;-65
2023/10/11 00:53:34;;;;;;;8.15;4.20;;;;;;;18.45;58.81;101233.25;3613543;39;20313;-65
2023/10/11 00:56:05;;;;;;;7.10;4.00;;;;;;;18.41;59.15;101229.09;3616445;39;20104;-66
2023/10/11 00:58:31;;;;;;;6.70;4.10;;;;;;;18.39;59.57;101235.66;3614733;39;20124;-67
2023/10/11 01:01:02;;;;;;;9.30;4.57;;;;;;;18.36;59.83;101234.06;3614814;39;20135;-67
2023/10/11 01:03:31;;;;;;;8.40;4.30;;;;;;;18.32;59.65;101221.72;3605355;39;20043;-67
2023/10/11 01:05:59;;;;;;;8.25;4.18;;;;;;;18.25;59.90;101221.41;3614183;39;20055;-67
2023/10/11 01:08:25;;;;;;;8.05;4.50;;;;;;;18.21;60.20;101225.41;3614214;39;20047;-67
2023/10/11 01:10:50;;;;;;;7.47;4.35;;;;;;;18.16;60.45;101227.66;3617482;39;20066;-66
2023/10/11 01:13:18;;;;;;;8.70;4.57;;;;;;;18.15;60.51;101223.22;3607460;39;20087;-67
2023/10/11 01:15:45;;;;;;;8.18;4.07;;;;;;;18.10;60.35;101214.59;3613159;39;20112;-67
2023/10/11 01:18:12;;;;;;;10.18;4.50;;;;;;;18.05;60.96;101225.03;3613951;39;20050;-66
2023/10/11 01:20:41;;;;;;;12.60;4.47;;;;;;;17.98;61.39;101212.94;3614886;39;20126;-67
2023/10/11 01:23:07;;;;;;;7.03;4.38;;;;;;;17.91;61.43;101200.88;3613390;39;20050;-67
2023/10/11 01:25:33;;;;;;;8.75;4.57;;;;;;;17.91;61.36;101211.75;3613012;39;20687;-66
2023/10/11 01:27:59;;;;;;;10.32;4.45;;;;;;;17.86;61.52;101210.31;3614812;39;20101;-66
2023/10/11 01:30:27;;;;;;;8.60;4.65;;;;;;;17.83;61.58;101210.56;3614258;39;20110;-67
2023/10/11 01:32:55;;;;;;;8.43;4.50;;;;;;;17.79;62.22;101209.13;3614321;39;20073;-65
2023/10/11 01:35:21;;;;;;;7.43;4.20;;;;;;;17.76;61.80;101203.91;3613043;39;20043;-66
2023/10/11 01:37:48;;;;;;;7.72;4.38;;;;;;;17.50;62.21;101167.22;3616415;39;20039;-66
2023/10/11 01:40:20;;;;;;;6.32;4.35;;;;;;;17.71;61.51;101198.00;3614356;39;20042;-66
2023/10/11 01:42:53;;;;;;;9.23;4.40;;;;;;;17.63;62.56;101204.09;3615445;39;20042;-66
2023/10/11 01:45:21;;;;;;;8.70;5.05;;;;;;;17.63;62.19;101197.78;3612584;39;20059;-66
2023/10/11 01:47:50;;;;;;;8.52;4.25;;;;;;;17.58;62.30;101198.19;3612896;39;20043;-66
2023/10/11 01:50:17;;;;;;;8.35;4.85;;;;;;;17.56;62.29;101196.59;3613990;39;20274;-66
2023/10/11 01:52:47;;;;;;;8.98;4.30;;;;;;;17.54;62.42;101193.16;3617917;39;20134;-65
2023/10/11 01:55:14;;;;;;;7.70;4.60;;;;;;;17.50;63.35;101194.38;3615673;39;20074;-66
2023/10/11 01:57:45;;;;;;;10.00;4.57;;;;;;;17.49;62.93;101187.22;3617954;39;20050;-65
2023/10/11 02:00:16;;;;;;;9.68;5.20;;;;;;;17.44;63.58;101190.31;3614963;39;20055;-66
2023/10/11 02:02:47;;;;;;;7.60;5.00;;;;;;;17.40;64.07;101181.56;3615011;39;20051;-66
2023/10/11 02:05:17;;;;;;;7.63;4.80;;;;;;;17.35;63.84;101183.84;3616790;39;20050;-66
2023/10/11 02:07:42;;;;;;;9.63;4.82;;;;;;;17.33;63.80;101174.09;3615408;39;20047;-66
2023/10/11 02:10:13;;;;;;;8.73;4.35;;;;;;;17.24;64.08;101159.41;3615137;39;20408;-65
2023/10/11 02:12:44;;;;;;;8.25;4.00;;;;;;;17.26;64.23;101165.59;3616484;39;20055;-65
2023/10/11 02:15:27;;;;;;;7.07;4.43;;;;;;;17.22;64.32;101157.81;3616199;39;20062;-66
2023/10/11 02:17:55;;;;;;;7.53;4.18;;;;;;;17.18;64.87;101159.94;3616522;39;20055;-67
2023/10/11 02:20:21;;;;;;;7.60;4.43;;;;;;;16.79;64.87;101094.41;3615268;39;20092;-66
2023/10/11 02:22:52;;;;;;;8.30;4.53;;;;;;;17.09;65.19;101160.72;3606199;39;20123;-66
2023/10/11 02:25:24;;;;;;;10.00;4.80;;;;;;;17.12;65.50;101150.44;3616220;39;20139;-66
2023/10/11 02:27:51;;;;;;;8.75;4.32;;;;;;;17.10;65.12;101151.59;3615740;39;20063;-68
2023/10/11 02:30:22;;;;;;;5.80;4.50;;;;;;;17.07;65.65;101143.69;3616276;39;20294;-67
2023/10/11 02:32:58;;;;;;;8.95;4.15;;;;;;;17.07;65.60;101146.41;3614103;39;20046;-67
2023/10/11 02:35:29;;;;;;;8.90;4.43;;;;;;;16.84;65.29;101104.88;3616917;39;20047;-66
2023/10/11 02:37:59;;;;;;;9.00;4.72;;;;;;;17.01;65.42;101133.34;3616027;39;20066;-66
2023/10/11 02:40:25;;;;;;;7.60;5.00;;;;;;;17.02;66.03;101143.22;3614934;39;20082;-66
2023/10/11 02:42:56;;;;;;;7.60;5.50;;;;;;;17.02;65.43;101143.22;3615277;39;20051;-66
2023/10/11 02:45:25;;;;;;;12.95;8.18;;;;;;;16.77;66.29;101104.53;3608306;39;20059;-65
2023/10/11 02:47:59;;;;;;;11.55;5.80;;;;;;;16.99;65.98;101154.31;3615142;39;21348;-66
2023/10/11 02:50:36;;;;;;;10.68;4.80;;;;;;;16.85;66.01;101121.03;3617337;39;20076;-65
2023/10/11 02:53:21;;;;;;;8.05;4.47;;;;;;;16.99;66.40;101143.47;3614882;39;20350;-65
2023/10/11 02:55:47;;;;;;;8.32;4.53;;;;;;;16.98;66.58;101141.75;3614379;39;20066;-67
2023/10/11 02:58:21;;;;;;;8.30;4.75;;;;;;;16.97;66.72;101140.00;3617875;39;20047;-66
2023/10/11 03:00:47;;;;;;;9.75;4.65;;;;;;;16.94;66.93;101142.00;3614453;39;20126;-66
2023/10/11 03:03:15;;;;;;;8.73;4.65;;;;;;;16.92;66.46;101137.69;3615104;39;20059;-67
2023/10/11 03:05:41;;;;;;;7.45;4.78;;;;;;;16.89;67.08;101138.81;3614560;39;20047;-66
2023/10/11 03:08:19;;;;;;;11.60;5.38;;;;;;;16.84;67.39;101135.63;3609813;39;20053;-67
2023/10/11 03:10:54;;;;;;;10.52;5.10;;;;;;;16.82;67.98;101143.03;3613997;39;20061;-67
2023/10/11 03:13:26;;;;;;;10.07;5.43;;;;;;;16.56;67.84;101103.59;3614923;39;20079;-66
2023/10/11 03:15:56;;;;;;;10.93;5.30;;;;;;;16.77;68.06;101139.81;3615123;39;20442;-67
2023/10/11 03:18:36;;;;;;;9.38;4.80;;;;;;;16.74;67.87;101121.03;3615047;39;20066;-65
2023/10/11 03:21:19;;;;;;;9.15;5.15;;;;;;;16.59;68.09;101103.31;3615976;39;20047;-66
2023/10/11 03:23:55;;;;;;;7.30;4.40;;;;;;;16.67;68.62;101111.69;3615537;39;20045;-67
2023/10/11 03:26:31;;;;;;;8.15;5.05;;;;;;;16.29;68.51;101058.72;3615357;39;20055;-66
2023/10/11 03:29:05;;;;;;;10.45;4.90;;;;;;;16.63;69.37;101115.66;3616827;39;20189;-66
2023/10/11 03:31:40;;;;;;;10.25;5.35;;;;;;;16.61;68.92;101128.47;3614792;39;20058;-66
2023/10/11 03:34:14;;;;;;;9.75;5.22;;;;;;;16.61;69.29;101128.47;3614985;39;20065;-67
2023/10/11 03:36:43;;;;;;;9.02;5.00;;;;;;;16.54;69.38;101113.69;3614313;39;20370;-67
2023/10/11 03:39:16;;;;;;;7.45;5.07;;;;;;;16.52;69.59;101102.09;3614480;39;20469;-66
2023/10/11 03:41:45;;;;;;;9.55;5.45;;;;;;;16.31;69.73;101078.47;3615087;39;20191;-67
2023/10/11 03:44:20;;;;;;;9.55;5.38;;;;;;;16.54;69.95;101103.69;3615402;39;20368;-66
2023/10/11 03:46:54;;;;;;;8.25;4.65;;;;;;;16.54;70.52;101117.25;3614071;39;20055;-67
2023/10/11 03:51:49;;;;;;;9.07;5.53;;;;;;;16.49;69.84;101122.19;3613398;39;20139;-68
2023/10/11 03:54:23;;;;;;;10.48;5.70;;;;;;;16.46;70.38;101117.06;3615400;39;20472;-67
2023/10/11 03:56:54;;;;;;;;;;;;;;;16.41;71.01;101109.28;3616214;39;20087;-66
2023/10/11 03:59:25;;;;;;;11.50;5.88;;;;;;;16.39;71.00;101108.53;3618891;39;19930;-67
2023/10/11 04:01:51;;;;;;;9.15;5.40;;;;;;;16.40;70.78;101107.56;3613780;39;20301;-66
2023/10/11 04:04:20;;;;;;;11.68;5.70;;;;;;;16.39;70.88;101103.09;3614739;39;20067;-67
2023/10/11 04:07:04;;;;;;;7.55;5.40;;;;;;;16.37;70.88;101110.50;3614058;39;20128;-66
2023/10/11 04:09:39;;;;;;;10.73;5.80;;;;;;;16.34;71.78;101115.34;3618376;39;20076;-66
2023/10/11 04:12:05;;;;;;;9.40;5.95;;;;;;;16.33;71.61;101108.16;3614558;39;20062;-67
2023/10/11 04:14:39;;;;;;;10.25;5.78;;;;;;;16.30;72.08;101097.56;3613302;39;20089;-66
2023/10/11 04:19:54;;;;;;;12.40;6.10;;;;;;;16.24;72.48;101088.94;3614753;39;20379;-68
2023/10/11 04:22:25;;;;;;;7.38;5.40;;;;;;;16.23;72.64;101089.91;3613559;39;20363;-67
2023/10/11 04:24:54;;;;;;;11.45;6.00;;;;;;;16.20;72.56;101095.59;3613906;39;20054;-67
2023/10/11 04:29:52;;;;;;;10.05;5.60;;;;;;;16.16;73.09;101093.25;3615068;39;20061;-66
2023/10/11 04:35:18;;;;;;;8.75;6.10;;;;;;;16.07;72.94;101091.28;3614499;39;20095;-65
2023/10/11 04:37:50;;;;;;;9.80;6.35;;;;;;;16.00;74.08;101080.94;3614133;39;20067;-67
2023/10/11 04:40:23;;;;;;;9.70;5.90;;;;;;;15.99;74.21;101083.78;3615430;39;20405;-66
2023/10/11 04:43:04;;;;;;;14.02;6.57;;;;;;;15.97;74.11;101097.47;3614831;39;21206;-65
2023/10/11 04:45:44;;;;;;;8.57;6.07;;;;;;;15.89;73.75;101094.50;3613910;39;20047;-69
2023/10/11 04:48:36;;;;;;;8.18;5.75;;;;;;;15.90;73.60;101088.09;3615082;39;20062;-67
2023/10/11 04:51:08;;;;;;;10.88;6.65;;;;;;;15.91;74.08;101103.38;3613724;39;20324;-67
2023/10/11 04:53:45;;;;;;;11.18;6.15;;;;;;;15.92;74.20;101099.69;3613155;39;20046;-67
2023/10/11 04:56:51;;;;;;;14.00;6.25;;;;;;;15.94;74.00;101102.25;3613971;39;20059;-69
2023/10/11 04:59:05;;;;;;;8.63;6.30;;;;;;;15.93;73.92;101098.69;3613728;39;20107;-68
2023/10/11 05:01:58;;;;;;;9.48;6.10;;;;;;;15.94;73.98;101104.97;3617228;39;20099;-67
2023/10/11 05:04:34;;;;;;;12.50;6.35;;;;;;;15.95;74.57;101107.59;3613906;39;20063;-67
2023/10/11 05:07:07;;;;;;;7.20;5.55;;;;;;;15.95;74.19;101109.41;3615256;39;20049;-67
2023/10/11 05:09:38;;;;;;;11.15;6.25;;;;;;;15.86;74.49;101094.75;3614242;39;20062;-68
2023/10/11 05:12:12;;;;;;;11.88;6.15;;;;;;;15.94;74.67;101107.69;3615724;39;20047;-67
2023/10/11 05:15:07;;;;;;;10.30;6.22;;;;;;;15.95;74.02;101110.28;3614483;39;20317;-67
2023/10/11 05:25:15;;;;;;;11.18;6.22;;;;;;;15.94;74.80;101110.41;3613651;39;20485;-67
2023/10/11 05:27:49;;;;;;;12.00;6.00;;;;;;;15.93;74.67;101114.97;3612870;39;20058;-67
2023/10/11 05:30:32;;;;;;;12.48;6.70;;;;;;;15.92;75.36;101126.81;3615690;39;20112;-67
2023/10/11 05:52:15;;;;;;;11.10;6.75;;;;;;;15.91;75.62;101119.63;3613299;39;20053;-67
2023/10/11 05:54:42;;;;;;;12.02;6.60;;;;;;;15.92;76.00;101110.53;3615624;39;20410;-67
2023/10/11 05:57:08;;;;;;;10.77;6.60;;;;;;;15.90;75.85;101123.34;3613028;39;20120;-68
2023/10/11 05:59:38;;;;;;;11.90;6.90;;;;;;;15.87;76.59;101123.59;3617292;39;20082;-67
2023/10/11 06:02:13;;;;;;;15.57;6.97;;;;;;;15.90;76.18;101131.47;3614973;39;20058;-68
2023/10/11 06:04:39;;;;;;;11.52;6.75;;;;;;;15.91;76.25;101132.34;3615475;39;20039;-64
2023/10/11 06:07:13;;;;;;;11.32;7.25;;;;;;;15.91;75.97;101124.19;3604429;39;20322;-63
2023/10/11 06:09:46;;;;;;;;;;;;;;;15.81;76.08;101110.50;3613307;39;20086;-64
2023/10/11 06:12:25;;;;;;;12.43;7.10;;;;;;;15.95;76.48;101131.97;3612720;39;20124;-65
2023/10/11 06:14:53;;;;;;;12.02;6.50;;;;;;;15.97;76.64;101131.84;3612606;39;20043;-63
2023/10/11 06:20:51;;;;;;;10.45;7.10;;;;;;;15.95;76.02;101104.88;3618207;39;20308;-64
2023/10/11 06:22:59;;;;;;;13.43;7.15;;;;;;;16.01;76.82;101120.63;3613067;39;20065;-64
2023/10/11 06:28:15;;;;;;;9.82;6.68;;;;;;;16.06;76.57;101114.00;3615290;39;20133;-64
2023/10/11 06:30:47;;;;;;;12.10;7.25;;;;;;;16.07;75.90;101113.84;3614221;39;20051;-65
2023/10/11 06:33:14;;;;;;;9.95;7.05;;;;;;;16.12;76.12;101114.34;3614933;39;20050;-64
2023/10/11 06:35:49;;;;;;;14.80;7.28;;;;;;;16.13;76.29;101104.38;3619432;39;20050;-65
2023/10/11 06:38:15;;;;;;;10.73;7.45;;;;;;;16.18;76.24;101113.84;3614764;39;20046;-63
2023/10/11 06:40:49;;;;;;;10.77;6.85;;;;;;;16.11;75.82;101100.91;3613916;39;20050;-64
2023/10/11 06:43:15;;;;;;;8.93;6.57;;;;;;;16.27;75.79;101120.41;3607527;39;20374;-65
2023/10/11 06:45:42;;;;;;;11.38;7.35;;;;;;;16.24;75.69;101104.38;3618265;39;20050;-65
2023/10/11 06:48:16;;;;;;;14.15;7.72;;;;;;;16.35;75.43;101117.06;3617236;39;20126;-65
2023/10/11 06:50:42;;;;;;;9.65;7.22;;;;;;;16.40;75.25;101126.53;3616200;39;20318;-65
2023/10/11 06:53:10;;;;;;;9.60;6.40;;;;;;;16.49;75.12;101124.91;3617029;39;20062;-65
2023/10/11 06:55:40;;;;;;;9.68;7.38;;;;;;;16.53;74.85;101129.13;3619139;39;20370;-65
2023/10/11 06:58:16;;;;;;;11.45;6.70;;;;;;;16.50;74.92;101113.09;3606799;39;20343;-64
2023/10/11 07:00:48;;;;;;;13.68;6.68;;;;;;;16.44;74.85;101102.72;3615526;39;20051;-64
2023/10/11 07:05:59;;;;;;;12.90;7.30;;;;;;;16.70;73.90;101128.56;3614878;39;20119;-64
2023/10/11 07:08:32;;;;;;;13.02;6.85;;;;;;;16.74;74.23;101129.19;3616650;39;20053;-65
2023/10/11 07:11:03;;;;;;;11.27;6.80;;;;;;;16.79;73.70;101140.56;3615187;39;20483;-65
2023/10/11 07:16:19;;;;;;;9.15;6.45;;;;;;;16.94;73.37;101146.56;3616271;39;20101;-66
2023/10/11 07:18:46;;;;;;;12.85;6.75;;;;;;;16.99;73.36;101157.03;3613205;39;20470;-66
2023/10/11 07:21:15;;;;;;;10.27;6.63;;;;;;;17.07;73.34;101163.56;3616650;39;20055;-66
2023/10/11 07:26:47;;;;;;;11.07;6.65;;;;;;;17.24;73.17;101175.72;3615456;39;20482;-66
2023/10/11 07:29:13;;;;;;;10.20;6.47;;;;;;;17.31;72.66;101185.06;3614972;39;20147;-64
2023/10/11 07:31:50;;;;;;;13.55;6.57;;;;;;;17.40;71.52;101184.28;3613975;39;20047;-66
2023/10/11 07:34:25;;;;;;;11.15;6.63;;;;;;;17.51;71.02;101186.13;3614610;39;20050;-66
2023/10/11 07:36:50;;;;;;;9.82;6.72;;;;;;;17.61;71.53;101184.31;3615712;39;20138;-65
2023/10/11 07:39:20;;;;;;;11.43;7.13;;;;;;;17.71;70.13;101180.81;3614625;39;20302;-65
2023/10/11 07:41:52;;;;;;;9.52;6.57;;;;;;;17.80;69.98;101183.63;3616576;39;20051;-63
2023/10/11 07:44:18;;;;;;;10.13;6.68;;;;;;;17.90;69.70;101177.41;3617387;39;20051;-66
2023/10/11 07:46:45;;;;;;;10.07;6.60;;;;;;;17.97;70.07;101190.31;3616148;39;20053;-64
2023/10/11 07:49:22;;;;;;;13.65;6.65;;;;;;;18.07;69.34;101190.38;3614051;39;20306;-63
2023/10/11 07:51:53;;;;;;;12.10;6.65;;;;;;;18.17;68.43;101174.97;3606450;39;20058;-64
2023/10/11 07:54:22;;;;;;;11.57;6.80;;;;;;;18.23;69.12;101182.56;3615090;39;20046;-65
2023/10/11 07:56:57;;;;;;;10.52;6.90;;;;;;;17.93;68.33;101117.28;3614853;39;20419;-65
2023/10/11 07:59:28;;;;;;;12.00;6.38;;;;;;;18.39;68.76;101184.81;3615908;39;20475;-65
2023/10/11 08:01:55;;;;;;;12.95;6.80;;;;;;;18.47;68.08;101178.69;3616425;39;20147;-63
2023/10/11 08:04:22;;;;;;;12.57;6.43;;;;;;;18.58;68.41;101180.44;3614077;39;20069;-64
2023/10/11 08:06:59;;;;;;;14.88;7.35;;;;;;;18.67;67.83;101175.03;3613211;39;20054;-64
2023/10/11 08:09:34;;;;;;;12.98;7.18;;;;;;;18.83;67.58;101170.94;3606025;39;20082;-65
2023/10/11 08:12:00;;;;;;;9.77;6.45;;;;;;;18.45;66.83;101085.41;3615323;39;20114;-65
2023/10/11 08:14:29;;;;;;;14.25;7.88;;;;;;;19.04;66.71;101170.84;3618532;39;20478;-65
2023/10/11 08:16:59;;;;;;;14.65;7.50;;;;;;;19.03;66.26;101172.72;3615890;39;20118;-64
2023/10/11 08:19:25;;;;;;;12.45;6.88;;;;;;;19.03;66.30;101172.72;3615486;39;20046;-63
2023/10/11 08:21:54;;;;;;;14.80;7.10;;;;;;;19.00;66.36;101160.22;3614205;39;20063;-65
2023/10/11 08:24:28;;;;;;;10.77;7.03;;;;;;;18.93;67.29;101150.03;3613955;39;20332;-64
2023/10/11 08:27:05;;;;;;;12.13;7.85;;;;;;;19.03;66.56;101191.78;3615246;39;21057;-64
2023/10/11 08:29:32;;;;;;;12.57;6.65;;;;;;;19.00;66.87;101197.53;3618460;39;20477;-63
2023/10/11 08:31:59;;;;;;;12.95;7.65;;;;;;;18.90;67.24;101194.78;3615359;39;20305;-64
2023/10/11 08:34:27;;;;;;;12.70;8.18;;;;;;;18.89;67.71;101201.19;3616890;39;20054;-63
2023/10/11 08:36:57;;;;;;;10.27;7.05;;;;;;;18.99;67.57;101195.78;3616617;39;20358;-64
2023/10/11 08:39:35;;;;;;;11.98;6.90;;;;;;;19.14;67.49;101185.34;3618456;39;20073;-64
2023/10/11 08:42:06;;;;;;;10.68;6.68;;;;;;;19.23;67.08;101190.78;3617016;39;20073;-64
2023/10/11 08:44:32;;;;;;;12.95;7.68;;;;;;;19.31;67.20;101191.94;3615373;39;20038;-63
2023/10/11 08:47:06;;;;;;;15.15;7.63;;;;;;;19.39;67.19;101190.22;3616871;39;20065;-64
2023/10/11 08:49:35;;;;;;;;;;;;;;;19.48;66.56;101196.69;3615249;39;20043;-62
2023/10/11 08:52:01;;;;;;;13.05;7.60;;;;;;;19.64;67.06;101205.19;3617463;39;20201;-66
2023/10/11 08:54:32;;;;;;;13.32;7.32;;;;;;;19.85;65.80;101206.88;3613880;39;20063;-63
2023/10/11 08:56:58;;;;;;;12.52;7.15;;;;;;;19.99;65.92;101195.53;3616942;39;20442;-63
2023/10/11 08:59:30;;;;;;;10.80;6.70;;;;;;;19.90;65.30;101182.75;3617637;39;20067;-64
2023/10/11 09:02:07;;;;;;;10.68;7.00;;;;;;;19.97;65.29;101208.44;3616070;39;20686;-65
2023/10/11 09:04:35;;;;;;;9.48;6.75;;;;;;;20.03;66.19;101218.78;3615598;39;20055;-64
2023/10/11 09:07:02;;;;;;;13.52;7.03;;;;;;;20.15;65.91;101212.13;3614016;39;20378;-65
2023/10/11 09:09:36;;;;;;;14.98;7.53;;;;;;;20.18;65.94;101225.50;3615999;39;20371;-62
2023/10/11 09:12:22;;;;;;;13.48;7.25;;;;;;;20.15;66.47;101220.31;3618489;39;20058;-64
2023/10/11 09:15:03;;;;;;;11.23;7.63;;;;;;;20.14;66.09;101221.34;3613991;39;20061;-63
2023/10/11 09:17:38;;;;;;;12.60;7.45;;;;;;;20.11;66.13;101210.72;3613317;39;20096;-63
2023/10/11 09:20:23;;;;;;;20.73;8.35;;;;;;;20.10;67.25;101217.16;3613797;39;20049;-65
2023/10/11 09:22:55;;;;;;;13.63;8.10;;;;;;;20.07;67.62;101203.81;3614849;39;20436;-64
2023/10/11 09:25:22;;;;;;;16.40;9.40;;;;;;;19.99;68.16;101191.94;3615915;39;20051;-64
2023/10/11 09:27:49;;;;;;;16.13;9.20;;;;;;;20.07;68.68;101216.59;3614856;39;20131;-63
2023/10/11 09:30:20;;;;;;;17.65;9.65;;;;;;;20.05;69.27;101213.19;3612532;39;20051;-64
2023/10/11 09:32:51;;;;;;;14.93;9.40;;;;;;;20.00;68.92;101220.94;3604016;39;20043;-64
2023/10/11 09:35:26;;;;;;;14.85;9.85;;;;;;;19.97;69.11;101226.69;3616231;39;20054;-65
2023/10/11 09:37:56;;;;;;;16.05;9.40;;;;;;;19.90;69.87;101226.41;3615843;39;20059;-64
2023/10/11 09:40:34;;;;;;;16.33;10.25;;;;;;;19.90;70.23;101226.41;3615489;39;20054;-62
2023/10/11 09:43:01;;;;;;;16.20;9.95;;;;;;;19.84;70.31;101232.44;3613466;39;20050;-63
2023/10/11 09:45:42;;;;;;;15.38;10.20;;;;;;;19.83;71.29;101238.91;3614997;39;20046;-63
2023/10/11 09:48:12;;;;;;;16.35;11.00;;;;;;;19.60;71.32;101200.13;3613453;39;20426;-63
2023/10/11 09:50:41;;;;;;;17.17;10.48;;;;;;;19.81;71.95;101238.19;3615766;39;20417;-64
2023/10/11 09:53:13;;;;;;;15.98;10.65;;;;;;;19.82;72.30;101215.34;3613116;39;20047;-64
2023/10/11 09:55:57;;;;;;;18.50;11.82;;;;;;;19.84;72.32;101227.84;3613826;39;20043;-65
2023/10/11 09:58:42;;;;;;;16.55;11.95;;;;;;;19.82;72.58;101234.44;3615029;39;20054;-65
2023/10/11 10:01:23;;;;;;;17.58;11.85;;;;;;;19.78;72.61;101231.16;3614436;39;20049;-65
2023/10/11 10:03:52;;;;;;;17.10;11.70;;;;;;;19.78;73.38;101227.56;3613540;39;20067;-65
2023/10/11 10:06:24;;;;;;;15.70;12.00;;;;;;;19.82;73.23;101224.44;3612702;39;20426;-62
2023/10/11 10:12:06;;;;;;;18.52;13.02;;;;;;;19.79;73.91;101240.19;3612691;39;20054;-63
2023/10/11 10:14:35;;;;;;;18.90;13.13;;;;;;;19.75;74.55;101241.50;3618481;39;20090;-64
2023/10/11 10:17:10;;;;;;;20.15;14.18;;;;;;;19.74;74.83;101237.06;3615584;39;20103;-64
2023/10/11 10:19:43;;;;;;;21.50;14.60;;;;;;;19.71;75.11;101246.38;3615746;39;20063;-65
2023/10/11 10:22:15;;;;;;;20.38;13.80;;;;;;;19.67;75.33;101254.00;3615831;39;20054;-64
2023/10/11 10:24:43;;;;;;;22.48;15.00;;;;;;;19.63;74.96;101252.53;3614160;39;20158;-63
2023/10/11 10:27:36;;;;;;;22.58;15.52;;;;;;;19.55;75.75;101257.81;3614650;39;20619;-63
2023/10/11 10:30:05;;;;;;;23.17;15.73;;;;;;;19.50;75.74;101251.94;3613410;39;20090;-63
2023/10/11 10:32:31;;;;;;;23.60;15.45;;;;;;;19.42;76.53;101249.06;3612355;39;20043;-64
2023/10/11 10:35:18;;;;;;;23.52;16.17;;;;;;;19.37;77.32;101230.41;3613561;39;20409;-64
2023/10/11 10:37:50;;;;;;;22.77;15.43;;;;;;;19.36;76.90;101234.13;3609119;39;20058;-64
2023/10/11 10:40:25;;;;;;;21.83;14.88;;;;;;;19.35;77.79;101239.75;3617577;39;20062;-64
2023/10/11 10:43:06;;;;;;;22.63;15.77;;;;;;;19.35;77.70;101237.03;3614824;39;20062;-64
2023/10/11 10:45:34;;;;;;;22.30;14.95;;;;;;;19.30;78.09;101240.16;3614811;39;20433;-64
2023/10/11 10:48:25;;;;;;;27.85;16.38;;;;;;;19.25;77.79;101229.69;3614594;39;20370;-64
2023/10/11 10:50:50;;;;;;;25.50;15.85;;;;;;;19.25;78.22;101234.25;3604496;39;20381;-65
2023/10/11 10:53:17;;;;;;;22.23;15.70;;;;;;;19.21;78.72;101236.41;3615380;39;20123;-64
2023/10/11 10:55:44;;;;;;;21.77;15.20;;;;;;;19.17;78.82;101237.69;3615827;39;20051;-63
2023/10/11 10:58:20;;;;;;;25.92;15.80;;;;;;;19.01;79.37;101221.88;3613655;39;20258;-64
2023/10/11 11:00:53;;;;;;;20.50;15.38;;;;;;;19.17;79.85;101239.56;3606247;39;20057;-65
2023/10/11 11:03:22;;;;;;;22.73;15.65;;;;;;;19.23;79.75;101237.13;3615137;39;20466;-65
2023/10/11 11:06:00;;;;;;;20.33;15.15;;;;;;;19.20;79.17;101228.38;3614641;39;20081;-63
2023/10/11 11:08:31;;;;;;;21.50;14.80;;;;;;;19.24;79.20;101227.94;3614386;39;20059;-64
2023/10/11 11:11:25;;;;;;;21.27;15.43;;;;;;;19.28;79.00;101225.78;3611156;39;20126;-62
2023/10/11 11:13:54;;;;;;;23.83;15.18;;;;;;;19.37;79.51;101232.25;3614271;39;21354;-64
2023/10/11 11:16:26;;;;;;;22.45;15.00;;;;;;;19.34;78.92;101213.47;3615255;39;20059;-64
2023/10/11 11:18:52;;;;;;;18.58;13.85;;;;;;;19.38;78.53;101212.19;3615690;39;20437;-65
2023/10/11 11:21:25;;;;;;;21.10;14.15;;;;;;;19.41;78.95;101209.16;3615991;39;20087;-63
2023/10/11 11:23:52;;;;;;;20.23;13.93;;;;;;;19.46;78.52;101204.16;3613424;39;20073;-64
2023/10/11 11:26:23;;;;;;;22.85;14.25;;;;;;;19.36;78.97;101190.50;3616248;39;20050;-64
2023/10/11 11:29:07;;;;;;;22.73;13.85;;;;;;;19.48;78.72;101205.72;3614183;39;20062;-64
2023/10/11 11:31:51;;;;;;;19.77;13.20;;;;;;;19.50;78.64;101202.84;3613052;39;20057;-65
2023/10/11 11:34:38;;;;;;;20.67;13.73;;;;;;;19.53;78.52;101208.00;3615557;39;20049;-64
2023/10/11 11:37:06;;;;;;;21.27;13.18;;;;;;;19.54;78.74;101203.44;3617849;39;20059;-63
2023/10/11 11:42:19;;;;;;;19.95;14.40;;;;;;;19.47;79.08;101194.94;3615007;39;20462;-65
2023/10/11 11:44:46;;;;;;;21.23;13.88;;;;;;;19.47;79.70;101176.75;3614422;39;20166;-66
2023/10/11 11:47:13;;;;;;;21.23;13.73;;;;;;;19.51;79.19;101169.13;3616695;39;20450;-65
2023/10/11 11:49:38;;;;;;;19.92;14.27;;;;;;;19.53;78.96;101150.75;3613909;39;20108;-64
2023/10/11 11:52:05;;;;;;;20.35;13.07;;;;;;;19.63;78.76;101162.53;3617028;39;20058;-66
2023/10/11 11:54:31;;;;;;;18.85;13.25;;;;;;;19.65;77.95;101168.72;3615223;39;20099;-65
2023/10/11 11:56:57;;;;;;;22.92;13.35;;;;;;;19.66;77.99;101164.13;3614590;39;20047;-66
2023/10/11 11:59:29;;;;;;;22.23;12.20;;;;;;;19.69;77.21;101169.28;3614744;39;20055;-65
2023/10/11 12:01:59;;;;;;;17.70;12.45;;;;;;;19.62;77.47;101166.25;3615461;39;20061;-65
2023/10/11 12:04:30;;;;;;;22.48;13.20;;;;;;;19.69;77.63;101163.81;3614021;39;20047;-66
2023/10/11 12:07:09;;;;;;;22.20;12.98;;;;;;;19.76;77.36;101155.91;3615627;39;20043;-65
2023/10/11 12:09:37;;;;;;;18.60;12.65;;;;;;;19.80;76.97;101141.00;3611939;39;20080;-67
2023/10/11 12:12:06;;;;;;;18.23;12.02;;;;;;;20.03;76.30;101133.31;3617201;39;20100;-66
2023/10/11 12:14:37;;;;;;;19.23;12.23;;;;;;;20.44;73.83;101121.06;3615918;39;20068;-64
2023/10/11 12:17:09;;;;;;;20.40;11.75;;;;;;;20.98;72.00;101124.78;3614677;39;20043;-65
2023/10/11 12:19:42;;;;;;;13.90;9.93;;;;;;;21.38;70.20;101115.28;3618087;39;20056;-66
2023/10/11 12:22:09;;;;;;;;;;;;;;;21.53;69.29;101119.16;3617443;39;20078;-64
2023/10/11 12:24:35;;;;;;;15.85;10.55;;;;;;;21.86;67.90;101113.06;3615157;39;20020;-66
2023/10/11 12:27:00;;;;;;;14.68;10.68;;;;;;;22.08;66.33;101117.13;3614480;39;20400;-65
2023/10/11 12:29:27;;;;;;;16.92;10.43;;;;;;;22.13;66.35;101122.97;3614706;39;20059;-65
2023/10/11 12:31:56;;;;;;;15.55;9.65;;;;;;;22.55;64.96;101135.84;3615969;39;20440;-66
2023/10/11 12:34:24;;;;;;;17.55;10.95;;;;;;;22.51;64.13;101137.19;3614121;39;20059;-66
2023/10/11 12:36:53;;;;;;;16.15;10.45;;;;;;;22.31;64.19;101118.28;3617663;39;20038;-66
2023/10/11 12:39:29;;;;;;;16.35;10.30;;;;;;;22.23;65.19;101121.88;3619493;39;20067;-66